Time;durP1;ratioP1;P1;durP2;ratioP2;P2;SDS_P1;SDS_P2;PMS_P1;PMS_P2;Temp;Humidity;BMP_temperature;BMP_pressure;BME280_temperature;BME280_humidity;BME280_pressure;Samples;Min_cycle;Max_cycle;Signal;HPM_P1;HPM_P2
2022/09/10 00:02:00;;;;;;;4.35;0.47;;;15.60;71.60;;;;;;5009424;28;20136;-78
2022/09/10 00:04:27;;;;;;;1.65;0.50;;;15.70;71.40;;;;;;4996972;28;20064;-78
2022/09/10 00:06:52;;;;;;;0.73;0.30;;;15.60;71.50;;;;;;4996928;28;20566;-76
2022/09/10 00:09:18;;;;;;;1.75;0.45;;;15.60;71.50;;;;;;4996789;28;20034;-77
2022/09/10 00:11:45;;;;;;;3.28;0.40;;;15.50;72.10;;;;;;4996848;28;20022;-75
2022/09/10 00:14:21;;;;;;;2.47;0.70;;;15.50;72.40;;;;;;4996764;28;20077;-76
2022/09/10 00:16:47;;;;;;;2.83;0.52;;;15.50;72.40;;;;;;4996873;28;20474;-76
2022/09/10 00:19:13;;;;;;;1.67;0.40;;;15.50;72.20;;;;;;4996826;28;20117;-77
2022/09/10 00:21:39;;;;;;;1.42;0.40;;;15.40;72.40;;;;;;4996768;28;20026;-77
2022/09/10 00:24:05;;;;;;;2.72;0.30;;;15.40;72.10;;;;;;4996462;28;20026;-76
2022/09/10 00:26:36;;;;;;;2.20;0.40;;;15.50;72.20;;;;;;4996564;28;20026;-76
2022/09/10 00:29:03;;;;;;;3.78;0.52;;;15.50;71.80;;;;;;4996547;28;20117;-76
2022/09/10 00:31:30;;;;;;;4.20;0.43;;;15.50;71.60;;;;;;4996386;28;20065;-77
2022/09/10 00:33:58;;;;;;;1.88;0.50;;;15.50;71.80;;;;;;4996406;28;20475;-76
2022/09/10 00:36:27;;;;;;;3.33;0.50;;;15.60;71.40;;;;;;4996326;28;20044;-77
2022/09/10 00:38:53;;;;;;;2.83;0.43;;;15.60;71.40;;;;;;4996497;28;20026;-76
2022/09/10 00:41:21;;;;;;;1.95;0.60;;;15.50;71.40;;;;;;4996262;28;20022;-77
2022/09/10 00:43:54;;;;;;;3.58;0.30;;;15.60;71.20;;;;;;4996271;28;20113;-76
2022/09/10 00:46:38;;;;;;;2.00;0.50;;;15.50;71.50;;;;;;4996174;28;20048;-76
2022/09/10 00:49:19;;;;;;;4.55;0.60;;;15.60;71.10;;;;;;4996099;28;20031;-77
2022/09/10 00:51:46;;;;;;;3.42;0.75;;;15.60;71.10;;;;;;4996070;28;20030;-76
2022/09/10 00:54:13;;;;;;;3.75;0.43;;;15.60;70.90;;;;;;4996086;28;20073;-76
2022/09/10 00:56:38;;;;;;;3.50;0.63;;;15.60;71.40;;;;;;4995967;28;20590;-76
2022/09/10 00:59:08;;;;;;;3.78;0.52;;;15.60;71.70;;;;;;4995864;28;20113;-77
2022/09/10 01:01:36;;;;;;;2.67;0.50;;;15.50;71.90;;;;;;4995946;28;20023;-76
2022/09/10 01:04:03;;;;;;;3.83;0.50;;;15.50;72.80;;;;;;4996002;28;20498;-76
2022/09/10 01:06:29;;;;;;;3.42;0.50;;;15.60;73.20;;;;;;4995897;28;20022;-76
2022/09/10 01:08:55;;;;;;;3.97;0.43;;;15.50;72.70;;;;;;4995876;28;20425;-76
2022/09/10 01:11:33;;;;;;;4.18;0.50;;;15.50;72.60;;;;;;4995723;28;20093;-76
2022/09/10 01:14:12;;;;;;;3.15;0.47;;;15.40;72.50;;;;;;4995801;28;20026;-76
2022/09/10 01:16:54;;;;;;;3.95;0.68;;;15.40;73.30;;;;;;4995624;28;20092;-76
2022/09/10 01:19:39;;;;;;;3.42;0.70;;;15.30;73.00;;;;;;4994456;28;20084;-77
2022/09/10 01:22:30;;;;;;;3.13;0.55;;;15.20;73.20;;;;;;4994258;28;20025;-76
2022/09/10 01:25:21;;;;;;;2.75;0.50;;;15.20;73.20;;;;;;4995562;28;20057;-76
2022/09/10 01:27:54;;;;;;;1.10;0.50;;;15.20;73.20;;;;;;4995544;28;20356;-76
2022/09/10 01:30:29;;;;;;;4.93;0.70;;;15.20;73.40;;;;;;4995435;28;20033;-76
2022/09/10 01:33:01;;;;;;;4.25;0.43;;;15.20;73.30;;;;;;4995572;28;20053;-76
2022/09/10 01:35:40;;;;;;;1.75;0.40;;;15.10;73.80;;;;;;4995444;28;20069;-76
2022/09/10 01:38:11;;;;;;;1.30;0.47;;;15.20;73.80;;;;;;4995529;28;20022;-76
2022/09/10 01:40:37;;;;;;;1.20;0.45;;;15.10;74.50;;;;;;4995493;28;20069;-76
2022/09/10 01:43:08;;;;;;;4.38;0.55;;;15.10;74.60;;;;;;4995372;28;20029;-77
2022/09/10 01:45:49;;;;;;;4.38;0.60;;;15.10;75.70;;;;;;4995022;28;20050;-77
2022/09/10 01:48:46;;;;;;;2.88;0.43;;;15.00;74.80;;;;;;4995555;28;20045;-77
2022/09/10 01:51:24;;;;;;;2.00;0.70;;;15.00;74.70;;;;;;5018702;28;20015;-76
2022/09/10 01:54:27;;;;;;;2.65;0.80;;;15.00;74.30;;;;;;4996030;28;20517;-76
2022/09/10 01:57:23;;;;;;;3.83;0.38;;;15.10;74.60;;;;;;4993717;28;20041;-77
2022/09/10 02:00:10;;;;;;;0.98;0.40;;;15.10;74.50;;;;;;4994850;28;20101;-76
2022/09/10 02:02:50;;;;;;;4.03;0.82;;;15.00;74.60;;;;;;4994756;28;20023;-75
2022/09/10 02:05:19;;;;;;;2.33;0.50;;;15.00;74.30;;;;;;4994723;28;20022;-77
2022/09/10 02:07:47;;;;;;;1.48;0.60;;;15.00;75.50;;;;;;4994499;28;20027;-75
2022/09/10 02:10:14;;;;;;;2.72;0.80;;;15.00;75.00;;;;;;4994070;28;20018;-75
2022/09/10 02:12:40;;;;;;;2.17;0.32;;;15.00;75.60;;;;;;4994554;28;20378;-76
2022/09/10 02:15:07;;;;;;;2.42;0.45;;;15.00;75.40;;;;;;4999766;28;20026;-76
2022/09/10 02:17:36;;;;;;;1.52;0.52;;;15.00;75.50;;;;;;5009782;28;20022;-76
2022/09/10 02:20:04;;;;;;;1.10;0.40;;;15.00;76.90;;;;;;5003239;28;20050;-75
2022/09/10 02:22:35;;;;;;;2.03;0.60;;;14.90;77.30;;;;;;4996776;28;20026;-75
2022/09/10 02:25:01;;;;;;;2.20;0.60;;;14.90;78.50;;;;;;4994476;28;20022;-75
2022/09/10 02:27:28;;;;;;;5.68;0.63;;;14.80;78.80;;;;;;4994197;28;20026;-77
2022/09/10 02:29:55;;;;;;;2.65;0.30;;;14.80;79.50;;;;;;4994208;28;20114;-76
2022/09/10 02:32:20;;;;;;;2.85;0.38;;;14.80;78.90;;;;;;4994299;28;20030;-77
2022/09/10 02:34:47;;;;;;;1.70;0.50;;;14.70;78.90;;;;;;4994033;28;20506;-76
2022/09/10 02:37:13;;;;;;;4.68;0.50;;;14.60;80.00;;;;;;4992879;28;20021;-79
2022/09/10 02:39:38;;;;;;;2.75;0.80;;;14.60;79.20;;;;;;4994133;28;20479;-77
2022/09/10 02:42:04;;;;;;;2.85;0.50;;;14.50;79.60;;;;;;4994040;28;20031;-77
2022/09/10 02:44:30;;;;;;;2.40;0.50;;;14.40;81.50;;;;;;4994035;28;20073;-76
2022/09/10 02:46:57;;;;;;;2.22;0.52;;;14.40;80.40;;;;;;4993794;28;20133;-77
2022/09/10 02:49:23;;;;;;;1.75;0.30;;;14.40;80.50;;;;;;4994238;28;20431;-77
2022/09/10 02:51:51;;;;;;;0.40;0.20;;;14.50;80.70;;;;;;4993817;28;20054;-77
2022/09/10 02:54:21;;;;;;;2.42;0.45;;;14.60;80.40;;;;;;4993809;28;20026;-76
2022/09/10 02:56:48;;;;;;;0.73;0.20;;;14.60;80.00;;;;;;4993823;28;20386;-76
2022/09/10 02:59:15;;;;;;;1.73;0.50;;;14.70;80.40;;;;;;4993922;28;20101;-77
2022/09/10 03:01:40;;;;;;;4.45;0.50;;;14.60;79.50;;;;;;5009490;28;20077;-76
2022/09/10 03:04:06;;;;;;;0.85;0.50;;;14.60;79.50;;;;;;4996892;28;20022;-77
2022/09/10 03:06:32;;;;;;;0.77;0.32;;;14.60;79.60;;;;;;4994475;28;20479;-76
2022/09/10 03:08:58;;;;;;;1.85;0.50;;;14.50;80.20;;;;;;4993956;28;20074;-76
2022/09/10 03:11:26;;;;;;;2.13;0.50;;;14.60;80.50;;;;;;4993674;28;20027;-75
2022/09/10 03:13:52;;;;;;;0.40;0.20;;;14.60;80.70;;;;;;4993813;28;20450;-75
2022/09/10 03:16:18;;;;;;;3.28;0.50;;;14.70;80.80;;;;;;4993664;28;20041;-76
2022/09/10 03:18:45;;;;;;;1.48;0.40;;;14.70;80.60;;;;;;4993700;28;20041;-76
2022/09/10 03:21:14;;;;;;;1.80;0.50;;;14.80;80.40;;;;;;4993598;28;20038;-75
2022/09/10 03:23:45;;;;;;;3.30;0.57;;;14.80;80.60;;;;;;4996688;28;20022;-75
2022/09/10 03:26:13;;;;;;;1.23;0.45;;;14.80;80.90;;;;;;4997588;28;20046;-75
2022/09/10 03:28:39;;;;;;;2.00;0.40;;;14.80;81.10;;;;;;4996397;28;20030;-76
2022/09/10 03:31:05;;;;;;;0.82;0.40;;;14.80;81.50;;;;;;4997434;28;20475;-76
2022/09/10 03:33:31;;;;;;;1.98;0.60;;;14.70;81.90;;;;;;4997594;28;20058;-75
2022/09/10 03:35:57;;;;;;;1.08;0.30;;;14.70;82.40;;;;;;4997361;28;20034;-76
2022/09/10 03:38:22;;;;;;;1.58;0.30;;;14.70;82.80;;;;;;4997391;28;20042;-77
2022/09/10 03:40:49;;;;;;;2.63;0.47;;;14.70;82.80;;;;;;5002147;28;20037;-75
2022/09/10 03:43:15;;;;;;;1.02;0.32;;;14.70;82.70;;;;;;5001109;28;20106;-76
2022/09/10 03:45:41;;;;;;;1.17;0.35;;;14.70;82.70;;;;;;4997006;28;20034;-76
2022/09/10 03:48:06;;;;;;;0.90;0.57;;;14.60;82.60;;;;;;4997185;28;20045;-76
2022/09/10 03:50:32;;;;;;;1.17;0.32;;;14.60;82.70;;;;;;4997046;28;20517;-75
2022/09/10 03:52:57;;;;;;;2.53;0.40;;;14.60;82.80;;;;;;4995734;28;20023;-76
2022/09/10 03:55:23;;;;;;;2.08;0.38;;;14.60;82.70;;;;;;4997030;28;20030;-76
2022/09/10 03:57:49;;;;;;;1.95;0.38;;;14.60;82.60;;;;;;4997205;28;20026;-76
2022/09/10 04:00:15;;;;;;;4.28;0.60;;;14.50;82.80;;;;;;4997213;28;20036;-75
2022/09/10 04:02:42;;;;;;;6.65;0.82;;;14.50;82.80;;;;;;4997285;28;20110;-76
2022/09/10 04:05:08;;;;;;;2.45;0.90;;;14.50;81.40;;;;;;4996863;28;20018;-75
2022/09/10 04:07:33;;;;;;;2.08;0.40;;;14.40;81.50;;;;;;4995476;28;20386;-76
2022/09/10 04:09:59;;;;;;;4.00;0.60;;;14.40;81.20;;;;;;4996725;28;20380;-76
2022/09/10 04:12:25;;;;;;;3.63;0.60;;;14.40;80.90;;;;;;4996558;28;20029;-76
2022/09/10 04:14:51;;;;;;;2.22;0.65;;;14.40;80.70;;;;;;4996760;28;20031;-76
2022/09/10 04:17:17;;;;;;;2.08;0.50;;;14.40;80.10;;;;;;4996724;28;20069;-76
2022/09/10 04:19:43;;;;;;;0.93;0.38;;;14.30;80.10;;;;;;4996674;28;20054;-77
2022/09/10 04:22:09;;;;;;;2.95;0.68;;;14.30;80.40;;;;;;4996532;28;20026;-77
2022/09/10 04:24:35;;;;;;;2.72;0.43;;;14.30;80.10;;;;;;4996544;28;20022;-78
2022/09/10 04:27:01;;;;;;;2.35;0.55;;;14.30;80.60;;;;;;4996492;28;20077;-76
2022/09/10 04:29:26;;;;;;;1.92;0.50;;;14.30;80.70;;;;;;4996499;28;20072;-77
2022/09/10 04:31:54;;;;;;;0.55;0.38;;;14.20;80.60;;;;;;4996479;28;20167;-77
2022/09/10 04:34:21;;;;;;;1.48;0.50;;;14.20;80.60;;;;;;4995830;28;20097;-77
2022/09/10 04:36:47;;;;;;;3.42;0.47;;;14.20;80.80;;;;;;4996300;28;20360;-77
2022/09/10 04:39:13;;;;;;;3.83;0.40;;;14.20;81.20;;;;;;4996279;28;20164;-77
2022/09/10 04:41:38;;;;;;;1.60;0.30;;;14.20;81.50;;;;;;4996275;28;20022;-78
2022/09/10 04:44:04;;;;;;;3.72;0.70;;;14.20;81.50;;;;;;4996180;28;20395;-77
2022/09/10 04:46:30;;;;;;;0.95;0.30;;;14.20;80.40;;;;;;4996057;28;20125;-77
2022/09/10 04:48:56;;;;;;;1.45;0.47;;;14.10;79.90;;;;;;4995984;28;20538;-78
2022/09/10 04:51:22;;;;;;;1.42;0.40;;;14.20;79.80;;;;;;4996006;28;20034;-77
2022/09/10 04:53:48;;;;;;;2.33;0.50;;;14.20;79.80;;;;;;4995982;28;20482;-77
2022/09/10 04:56:14;;;;;;;2.13;0.80;;;14.20;79.50;;;;;;4995871;28;20490;-76
2022/09/10 04:58:40;;;;;;;1.15;0.40;;;14.20;79.70;;;;;;4995781;28;20024;-76
2022/09/10 05:01:06;;;;;;;1.10;0.30;;;14.20;80.30;;;;;;4995928;28;20038;-76
2022/09/10 05:03:32;;;;;;;1.50;0.40;;;14.20;80.50;;;;;;4995867;28;20054;-76
2022/09/10 05:05:58;;;;;;;1.98;0.50;;;14.30;81.20;;;;;;4994380;28;20069;-77
2022/09/10 05:08:24;;;;;;;2.58;0.45;;;14.20;80.90;;;;;;4994452;28;20042;-76
2022/09/10 05:10:50;;;;;;;3.38;0.60;;;14.30;80.80;;;;;;4995861;28;20379;-76
2022/09/10 05:13:16;;;;;;;1.80;0.43;;;14.30;80.90;;;;;;4995813;28;20019;-76
2022/09/10 05:15:42;;;;;;;3.38;0.40;;;14.30;81.40;;;;;;4995545;28;20034;-76
2022/09/10 05:18:08;;;;;;;2.50;0.57;;;14.30;81.70;;;;;;4995707;28;20050;-77
2022/09/10 05:20:34;;;;;;;2.53;0.57;;;14.30;81.60;;;;;;5015722;28;20010;-76
2022/09/10 05:23:00;;;;;;;3.47;0.40;;;14.40;81.20;;;;;;5007905;28;20100;-78
2022/09/10 05:25:26;;;;;;;0.73;0.20;;;14.40;81.20;;;;;;5005874;28;20026;-77
2022/09/10 05:27:52;;;;;;;1.05;0.50;;;14.40;81.20;;;;;;4998967;28;20386;-77
2022/09/10 05:30:18;;;;;;;2.47;0.60;;;14.40;81.20;;;;;;4995394;28;20023;-77
2022/09/10 05:32:44;;;;;;;3.03;0.60;;;14.40;81.20;;;;;;4995214;28;20431;-77
2022/09/10 05:35:10;;;;;;;3.25;0.30;;;14.40;81.20;;;;;;4995214;28;20049;-78
2022/09/10 05:37:35;;;;;;;0.45;0.20;;;14.50;80.70;;;;;;4993914;28;20026;-78
2022/09/10 05:40:06;;;;;;;4.03;0.40;;;14.50;80.30;;;;;;4995238;28;20061;-78
2022/09/10 05:42:32;;;;;;;3.35;0.57;;;14.50;80.20;;;;;;4995224;28;20033;-78
2022/09/10 05:44:58;;;;;;;1.25;0.63;;;14.60;80.70;;;;;;4992808;28;20042;-78
2022/09/10 05:47:23;;;;;;;2.90;0.52;;;14.60;80.70;;;;;;4999723;28;20042;-77
2022/09/10 05:49:50;;;;;;;2.05;0.60;;;14.60;80.50;;;;;;4995056;28;20033;-78
2022/09/10 05:52:16;;;;;;;2.05;0.60;;;14.70;80.50;;;;;;4994810;28;20026;-78
2022/09/10 05:54:43;;;;;;;1.63;0.50;;;14.70;80.80;;;;;;4994594;28;20045;-78
2022/09/10 05:57:08;;;;;;;0.93;0.30;;;14.70;80.80;;;;;;4994869;28;20512;-78
2022/09/10 05:59:35;;;;;;;0.75;0.43;;;14.80;80.60;;;;;;4994912;28;20053;-77
2022/09/10 06:02:00;;;;;;;1.48;0.45;;;14.80;80.50;;;;;;4994588;28;20073;-77
2022/09/10 06:04:26;;;;;;;1.85;0.40;;;14.90;80.10;;;;;;4994682;28;20030;-77
2022/09/10 06:06:53;;;;;;;0.73;0.40;;;14.90;78.80;;;;;;4994565;28;20034;-77
2022/09/10 06:09:18;;;;;;;1.02;0.50;;;15.00;78.70;;;;;;4997162;28;20101;-77
2022/09/10 06:11:48;;;;;;;2.00;0.50;;;15.10;78.20;;;;;;5005981;28;20042;-76
2022/09/10 06:14:13;;;;;;;0.47;0.20;;;15.10;77.80;;;;;;4994716;28;20061;-78
2022/09/10 06:16:40;;;;;;;3.13;0.70;;;15.20;75.70;;;;;;4994708;28;20070;-77
2022/09/10 06:19:07;;;;;;;0.85;0.20;;;15.20;73.40;;;;;;4994391;28;20018;-77
2022/09/10 06:21:32;;;;;;;1.52;0.80;;;15.10;73.70;;;;;;4994154;28;20029;-77
2022/09/10 06:23:58;;;;;;;2.33;0.15;;;15.20;72.90;;;;;;4994248;28;20406;-77
2022/09/10 06:26:24;;;;;;;0.82;0.30;;;15.10;72.60;;;;;;4994087;28;20022;-77
2022/09/10 06:28:49;;;;;;;0.28;0.10;;;15.10;72.60;;;;;;4994233;28;20097;-77
2022/09/10 06:31:18;;;;;;;0.63;0.13;;;15.10;72.90;;;;;;4994142;28;20022;-77
2022/09/10 06:33:47;;;;;;;0.47;0.20;;;15.20;72.60;;;;;;4993943;28;20030;-77
2022/09/10 06:36:14;;;;;;;0.75;0.45;;;15.30;73.20;;;;;;4994398;28;20062;-77
2022/09/10 06:38:40;;;;;;;0.60;0.10;;;15.30;73.20;;;;;;4993946;28;20030;-77
2022/09/10 06:41:10;;;;;;;0.47;0.20;;;15.40;72.70;;;;;;4994242;28;20023;-77
2022/09/10 06:43:37;;;;;;;0.90;0.50;;;15.40;72.60;;;;;;4994201;28;20022;-77
2022/09/10 06:46:17;;;;;;;0.40;0.10;;;15.50;72.50;;;;;;4993399;28;20050;-77
2022/09/10 06:48:44;;;;;;;0.20;0.10;;;15.40;72.70;;;;;;4994494;28;20036;-77
2022/09/10 06:51:11;;;;;;;1.75;0.20;;;15.30;72.30;;;;;;4992881;28;20022;-77
2022/09/10 06:53:38;;;;;;;0.45;0.10;;;15.40;72.90;;;;;;4993614;28;20022;-78
2022/09/10 06:56:07;;;;;;;0.20;0.10;;;15.40;73.20;;;;;;4993418;28;20081;-78
2022/09/10 06:58:36;;;;;;;2.30;0.20;;;15.40;73.50;;;;;;4995674;28;20030;-76
2022/09/10 07:01:06;;;;;;;0.20;0.13;;;15.30;73.40;;;;;;4995249;28;20038;-77
2022/09/10 07:03:33;;;;;;;0.47;0.10;;;15.20;74.10;;;;;;4994354;28;20033;-77
2022/09/10 07:06:07;;;;;;;0.93;0.40;;;15.20;74.10;;;;;;4994866;28;20040;-78
2022/09/10 07:08:33;;;;;;;4.85;0.73;;;15.30;74.30;;;;;;4993982;28;20110;-76
2022/09/10 07:11:04;;;;;;;2.78;0.55;;;15.60;76.30;;;;;;4994502;28;20029;-76
2022/09/10 07:13:32;;;;;;;1.80;0.25;;;15.80;75.00;;;;;;4993270;28;20520;-77
2022/09/10 07:15:57;;;;;;;2.47;0.47;;;16.10;75.60;;;;;;4992968;28;20085;-76
2022/09/10 07:18:24;;;;;;;0.80;0.20;;;16.40;74.10;;;;;;4993347;28;20023;-76
2022/09/10 07:20:50;;;;;;;0.22;0.20;;;16.50;70.50;;;;;;4993292;28;20029;-75
2022/09/10 07:23:17;;;;;;;1.65;0.43;;;16.50;69.80;;;;;;4993298;28;20027;-75
2022/09/10 07:25:43;;;;;;;0.20;0.20;;;16.60;70.40;;;;;;4993249;28;20026;-79
2022/09/10 07:28:12;;;;;;;2.20;0.20;;;16.70;70.40;;;;;;4993188;28;20391;-78
2022/09/10 07:30:44;;;;;;;2.15;0.30;;;16.80;69.80;;;;;;4993400;28;20030;-79
2022/09/10 07:33:10;;;;;;;3.08;0.35;;;17.00;70.30;;;;;;4993287;28;20375;-76
2022/09/10 07:35:36;;;;;;;1.55;0.30;;;17.10;70.30;;;;;;4992938;28;20031;-76
2022/09/10 07:38:12;;;;;;;0.45;0.10;;;17.20;70.10;;;;;;4993253;28;20034;-78
2022/09/10 07:40:39;;;;;;;0.75;0.20;;;17.10;67.70;;;;;;4993733;28;20018;-78
2022/09/10 07:43:05;;;;;;;1.65;0.20;;;16.80;69.80;;;;;;4998467;28;20022;-76
2022/09/10 07:45:31;;;;;;;1.17;0.68;;;16.70;70.40;;;;;;4995203;28;20065;-77
2022/09/10 07:47:57;;;;;;;0.80;0.20;;;16.70;69.60;;;;;;5010822;28;20007;-76
2022/09/10 07:50:22;;;;;;;0.50;0.25;;;16.70;70.40;;;;;;5007658;28;20031;-77
2022/09/10 07:52:48;;;;;;;0.47;0.20;;;16.30;70.70;;;;;;5009859;28;20026;-75
2022/09/10 07:55:13;;;;;;;1.13;0.50;;;16.10;71.90;;;;;;4997918;28;20034;-77
2022/09/10 07:57:39;;;;;;;1.13;0.20;;;16.30;72.60;;;;;;4992987;28;20049;-74
2022/09/10 08:00:11;;;;;;;1.55;0.40;;;16.20;72.20;;;;;;4992984;28;20030;-74
2022/09/10 08:02:38;;;;;;;0.95;0.28;;;16.10;72.00;;;;;;4993013;28;20471;-75
2022/09/10 08:05:04;;;;;;;2.03;0.43;;;16.00;72.90;;;;;;4997315;28;20482;-76
2022/09/10 08:07:30;;;;;;;2.05;0.77;;;15.90;72.90;;;;;;5002147;28;20022;-76
2022/09/10 08:09:56;;;;;;;2.50;0.82;;;15.80;72.70;;;;;;5004165;28;20014;-76
2022/09/10 08:12:21;;;;;;;0.73;0.20;;;15.90;72.90;;;;;;4999148;28;20360;-76
2022/09/10 08:14:47;;;;;;;1.55;0.47;;;15.90;73.40;;;;;;4996011;28;20038;-76
2022/09/10 08:17:13;;;;;;;0.95;0.35;;;16.00;73.00;;;;;;4996256;28;20018;-77
2022/09/10 08:19:38;;;;;;;0.98;0.43;;;16.00;73.10;;;;;;4996247;28;20042;-77
2022/09/10 08:22:04;;;;;;;0.88;0.30;;;16.00;73.50;;;;;;4994795;28;20030;-78
2022/09/10 08:24:30;;;;;;;0.85;0.10;;;16.00;72.30;;;;;;4996122;28;20053;-76
2022/09/10 08:26:55;;;;;;;1.63;0.28;;;16.10;72.40;;;;;;4996695;28;20026;-76
2022/09/10 08:29:22;;;;;;;1.63;0.20;;;16.10;72.30;;;;;;4995919;28;20574;-75
2022/09/10 08:31:47;;;;;;;2.65;0.20;;;16.20;72.80;;;;;;4995915;28;20034;-76
2022/09/10 08:34:13;;;;;;;0.73;0.20;;;16.20;71.70;;;;;;4994807;28;20030;-76
2022/09/10 08:36:38;;;;;;;3.42;0.52;;;16.10;72.50;;;;;;4995772;28;20062;-75
2022/09/10 08:39:04;;;;;;;2.83;0.77;;;16.10;72.30;;;;;;4995950;28;20109;-75
2022/09/10 08:41:39;;;;;;;2.92;0.30;;;16.10;72.60;;;;;;5005743;28;20026;-75
2022/09/10 08:44:33;;;;;;;1.67;0.68;;;16.10;72.50;;;;;;4997997;28;20030;-74
2022/09/10 08:47:19;;;;;;;0.98;0.40;;;16.00;73.20;;;;;;4995543;28;20121;-75
2022/09/10 08:49:50;;;;;;;2.33;0.60;;;16.00;73.00;;;;;;4995515;28;20050;-76
2022/09/10 08:52:47;;;;;;;0.68;0.45;;;15.90;73.20;;;;;;4994579;28;20027;-76
2022/09/10 08:55:16;;;;;;;3.33;0.30;;;15.80;73.60;;;;;;4994191;28;20449;-76
2022/09/10 08:58:01;;;;;;;1.70;0.50;;;15.70;74.30;;;;;;4994135;28;20546;-76
2022/09/10 09:00:33;;;;;;;1.83;0.50;;;15.60;74.50;;;;;;4995229;28;20467;-76
2022/09/10 09:03:10;;;;;;;0.68;0.30;;;15.60;76.70;;;;;;4995316;28;20023;-74
2022/09/10 09:05:50;;;;;;;1.75;0.30;;;15.40;79.40;;;;;;4993956;28;20026;-75
2022/09/10 09:08:20;;;;;;;3.53;0.20;;;15.40;79.40;;;;;;4995395;28;20022;-76
2022/09/10 09:10:49;;;;;;;2.08;0.45;;;15.40;79.20;;;;;;4995325;28;20030;-74
2022/09/10 09:13:35;;;;;;;0.75;0.25;;;15.40;78.40;;;;;;4995217;28;20053;-75
2022/09/10 09:16:31;;;;;;;2.55;0.73;;;15.60;78.80;;;;;;4994899;28;20045;-74
2022/09/10 09:19:22;;;;;;;1.25;0.68;;;15.80;80.10;;;;;;4995067;28;20025;-75
2022/09/10 09:22:00;;;;;;;0.63;0.40;;;16.10;77.80;;;;;;4994890;28;20033;-75
2022/09/10 09:24:40;;;;;;;1.90;0.40;;;16.20;76.00;;;;;;4993573;28;20034;-74
2022/09/10 09:27:13;;;;;;;3.83;0.50;;;16.30;74.50;;;;;;4995042;28;20026;-74
2022/09/10 09:30:03;;;;;;;3.92;0.50;;;16.40;77.80;;;;;;4995158;28;20026;-74
2022/09/10 09:32:34;;;;;;;1.20;0.38;;;16.40;75.40;;;;;;4994831;28;20085;-74
2022/09/10 09:35:05;;;;;;;0.55;0.40;;;16.40;73.50;;;;;;4994625;28;20035;-74
2022/09/10 09:37:33;;;;;;;3.08;0.40;;;16.40;73.10;;;;;;4993343;28;20036;-75
2022/09/10 09:40:16;;;;;;;1.33;0.50;;;16.40;74.50;;;;;;4994659;28;20502;-75
2022/09/10 09:42:50;;;;;;;1.38;0.25;;;16.40;74.30;;;;;;4994725;28;20200;-74
2022/09/10 09:45:42;;;;;;;1.95;0.20;;;16.30;73.50;;;;;;4994437;28;20026;-74
2022/09/10 09:48:11;;;;;;;3.85;0.30;;;16.30;73.60;;;;;;4994496;28;20029;-74
2022/09/10 09:50:41;;;;;;;1.27;0.30;;;16.30;75.00;;;;;;4994634;28;20037;-75
2022/09/10 09:53:14;;;;;;;2.92;0.60;;;16.40;74.80;;;;;;4993315;28;20496;-75
2022/09/10 09:55:46;;;;;;;2.13;0.80;;;16.40;72.90;;;;;;4993816;28;20042;-76
2022/09/10 09:58:20;;;;;;;2.38;0.40;;;16.40;74.90;;;;;;4992913;28;20647;-75
2022/09/10 10:01:08;;;;;;;0.55;0.30;;;16.40;72.80;;;;;;4994155;28;20034;-75
2022/09/10 10:03:47;;;;;;;1.38;0.57;;;16.60;74.10;;;;;;4994245;28;20422;-75
2022/09/10 10:06:14;;;;;;;1.20;0.50;;;16.90;72.30;;;;;;4993915;28;20026;-75
2022/09/10 10:08:53;;;;;;;0.95;0.40;;;17.00;72.10;;;;;;4992385;28;20038;-74
2022/09/10 10:11:21;;;;;;;1.35;0.30;;;17.10;71.20;;;;;;4994038;28;20025;-75
2022/09/10 10:13:50;;;;;;;1.08;0.30;;;17.30;70.40;;;;;;4994057;28;20065;-75
2022/09/10 10:16:34;;;;;;;1.67;0.40;;;17.30;69.50;;;;;;4993889;28;20062;-75
2022/09/10 10:19:00;;;;;;;1.80;0.60;;;17.20;70.70;;;;;;4994128;28;20101;-75
2022/09/10 10:21:31;;;;;;;1.23;0.40;;;17.00;74.20;;;;;;4993853;28;20105;-75
2022/09/10 10:23:56;;;;;;;3.08;0.60;;;16.90;72.40;;;;;;4993538;28;20040;-75
2022/09/10 10:26:29;;;;;;;1.13;0.30;;;16.80;73.70;;;;;;4994018;28;20038;-75
2022/09/10 10:28:58;;;;;;;0.90;0.35;;;16.60;72.50;;;;;;4994140;28;20076;-75
2022/09/10 10:31:50;;;;;;;1.67;0.40;;;16.40;74.20;;;;;;4993575;28;20034;-75
2022/09/10 10:34:48;;;;;;;0.60;0.30;;;16.20;73.60;;;;;;4993919;28;20025;-75
2022/09/10 10:37:44;;;;;;;0.43;0.20;;;16.00;76.70;;;;;;4993857;28;20317;-75
2022/09/10 10:40:32;;;;;;;3.08;0.30;;;15.80;77.40;;;;;;4993940;28;20113;-76
2022/09/10 10:43:07;;;;;;;0.93;0.20;;;15.70;78.60;;;;;;4993383;28;20081;-75
2022/09/10 10:46:03;;;;;;;1.93;0.50;;;15.70;77.80;;;;;;4991802;28;20157;-75
2022/09/10 10:48:50;;;;;;;2.47;0.50;;;15.70;78.00;;;;;;4993463;28;20031;-75
2022/09/10 10:51:40;;;;;;;2.00;0.40;;;15.60;79.30;;;;;;4993349;28;20109;-75
2022/09/10 10:54:37;;;;;;;0.88;0.25;;;15.40;80.00;;;;;;4993393;28;20030;-74
2022/09/10 10:57:14;;;;;;;;;;;15.30;81.20;;;;;;4993752;28;20096;-75
2022/09/10 11:00:06;;;;;;;0.55;0.32;;;15.30;81.70;;;;;;4993472;28;20377;-75
2022/09/10 11:02:51;;;;;;;0.60;0.28;;;15.30;80.60;;;;;;4993657;28;20410;-75
2022/09/10 11:05:22;;;;;;;1.05;0.22;;;15.50;80.20;;;;;;4993862;28;20172;-75
2022/09/10 11:07:48;;;;;;;2.92;0.47;;;15.70;80.10;;;;;;4993833;28;20033;-75
2022/09/10 11:10:20;;;;;;;0.63;0.32;;;15.80;79.20;;;;;;4993441;28;20105;-75
2022/09/10 11:13:08;;;;;;;1.50;0.30;;;15.80;78.60;;;;;;4993366;28;20116;-75
2022/09/10 11:15:45;;;;;;;1.33;0.40;;;15.80;78.50;;;;;;4993360;28;20035;-75
2022/09/10 11:18:27;;;;;;;4.15;0.52;;;15.90;80.00;;;;;;4993198;28;20358;-75
2022/09/10 11:20:55;;;;;;;1.38;0.60;;;15.80;80.40;;;;;;4993209;28;20466;-74
2022/09/10 11:23:40;;;;;;;2.05;0.55;;;15.80;80.40;;;;;;4991691;28;20027;-74
2022/09/10 11:26:12;;;;;;;3.20;0.73;;;15.70;81.00;;;;;;4993352;28;20023;-75
2022/09/10 11:28:53;;;;;;;3.03;0.80;;;15.60;82.00;;;;;;4993036;28;20454;-75
2022/09/10 11:31:35;;;;;;;3.33;0.68;;;15.50;81.80;;;;;;4992997;28;20030;-75
2022/09/10 11:34:03;;;;;;;0.93;0.47;;;15.60;81.60;;;;;;4993105;28;20117;-75
2022/09/10 11:36:38;;;;;;;2.47;0.40;;;15.90;82.30;;;;;;4993006;28;20049;-75
2022/09/10 11:39:18;;;;;;;1.30;0.60;;;16.20;80.40;;;;;;4993143;28;20022;-75
2022/09/10 11:41:47;;;;;;;1.85;0.70;;;16.30;80.40;;;;;;4991556;28;20030;-75
2022/09/10 11:44:21;;;;;;;1.75;0.60;;;16.40;78.40;;;;;;4995493;28;20034;-75
2022/09/10 11:46:55;;;;;;;1.48;0.50;;;16.50;78.10;;;;;;4996981;28;20104;-75
2022/09/10 11:49:26;;;;;;;3.08;0.93;;;16.50;77.60;;;;;;4996825;28;20038;-76
2022/09/10 11:51:52;;;;;;;1.52;0.55;;;16.40;79.00;;;;;;4996902;28;20084;-75
2022/09/10 11:54:27;;;;;;;0.88;0.13;;;16.30;77.40;;;;;;4996597;28;20038;-75
2022/09/10 11:57:07;;;;;;;0.30;0.28;;;16.00;75.50;;;;;;4996633;28;20086;-75
2022/09/10 11:59:42;;;;;;;1.40;0.40;;;16.00;77.20;;;;;;4996720;28;20018;-74
2022/09/10 12:02:28;;;;;;;1.98;0.68;;;16.10;76.90;;;;;;4996748;28;20096;-75
2022/09/10 12:05:29;;;;;;;0.93;0.45;;;16.40;77.20;;;;;;4996741;28;20034;-74
2022/09/10 12:08:09;;;;;;;0.28;0.20;;;17.00;76.20;;;;;;4985813;28;20048;-75
2022/09/10 12:10:55;;;;;;;0.93;0.40;;;17.80;72.30;;;;;;4996853;28;20065;-75
2022/09/10 12:13:21;;;;;;;0.63;0.40;;;18.20;71.60;;;;;;4996571;28;20031;-74
2022/09/10 12:15:55;;;;;;;1.85;0.52;;;18.50;69.40;;;;;;4996517;28;20137;-75
2022/09/10 12:18:43;;;;;;;1.02;0.55;;;18.30;65.60;;;;;;4996248;28;20022;-75
2022/09/10 12:21:35;;;;;;;0.40;0.38;;;17.80;66.60;;;;;;4996671;28;20022;-76
2022/09/10 12:24:06;;;;;;;0.73;0.30;;;17.50;68.40;;;;;;4996598;28;20022;-75
2022/09/10 12:26:41;;;;;;;0.90;0.38;;;17.70;68.70;;;;;;4996605;28;20022;-76
2022/09/10 12:29:32;;;;;;;0.25;0.25;;;18.00;66.10;;;;;;4996621;28;20108;-75
2022/09/10 12:32:06;;;;;;;0.63;0.20;;;18.20;67.70;;;;;;4995045;28;20061;-74
2022/09/10 12:34:33;;;;;;;0.93;0.30;;;18.80;65.50;;;;;;4996333;28;20026;-76
2022/09/10 12:36:58;;;;;;;1.98;0.28;;;19.10;64.40;;;;;;4995211;28;20035;-76
2022/09/10 12:39:26;;;;;;;2.92;0.50;;;18.90;64.00;;;;;;4994877;28;20014;-76
2022/09/10 12:41:54;;;;;;;0.38;0.20;;;18.90;62.50;;;;;;4978903;28;20061;-77
2022/09/10 12:44:35;;;;;;;0.63;0.20;;;18.80;65.50;;;;;;4996173;28;20037;-76
2022/09/10 12:47:12;;;;;;;0.90;0.40;;;18.70;63.30;;;;;;4996100;28;20065;-77
2022/09/10 12:49:54;;;;;;;1.88;0.30;;;18.90;63.50;;;;;;4996106;28;20445;-77
2022/09/10 12:52:50;;;;;;;0.88;0.10;;;19.10;62.60;;;;;;4996203;28;20109;-76
2022/09/10 12:55:15;;;;;;;;;;;19.50;60.90;;;;;;4996003;28;20074;-76
2022/09/10 12:57:51;;;;;;;;;;;19.80;60.40;;;;;;4995392;28;19909;-74
2022/09/10 13:00:22;;;;;;;0.98;0.30;;;19.90;59.10;;;;;;4995961;28;19928;-76
2022/09/10 13:02:57;;;;;;;1.33;0.50;;;19.70;60.30;;;;;;4995901;28;20384;-75
2022/09/10 13:05:41;;;;;;;;;;;19.80;58.50;;;;;;4996395;28;20030;-74
2022/09/10 13:08:07;;;;;;;1.10;0.30;;;19.80;57.70;;;;;;4995957;28;19913;-75
2022/09/10 13:10:32;;;;;;;2.15;0.40;;;20.10;57.30;;;;;;4995659;28;20385;-77